sensor_id;sensor_type;location;lat;lon;timestamp;P1;durP1;ratioP1;P2;durP2;ratioP2
70825;SDS011;58446;41.490;22.098;2022-08-19T00:01:19;12.10;;;6.63;;
70825;SDS011;58446;41.490;22.098;2022-08-19T00:03:46;12.63;;;6.20;;
70825;SDS011;58446;41.490;22.098;2022-08-19T00:06:12;15.85;;;7.35;;
70825;SDS011;58446;41.490;22.098;2022-08-19T00:08:37;12.13;;;6.35;;
70825;SDS011;58446;41.490;22.098;2022-08-19T00:11:03;12.03;;;7.20;;
70825;SDS011;58446;41.490;22.098;2022-08-19T00:13:29;12.45;;;6.80;;
70825;SDS011;58446;41.490;22.098;2022-08-19T00:15:55;11.97;;;6.33;;
70825;SDS011;58446;41.490;22.098;2022-08-19T00:18:21;11.90;;;5.90;;
70825;SDS011;58446;41.490;22.098;2022-08-19T00:20:47;13.00;;;6.32;;
70825;SDS011;58446;41.490;22.098;2022-08-19T00:23:13;12.88;;;6.07;;
70825;SDS011;58446;41.490;22.098;2022-08-19T00:25:40;13.00;;;6.05;;
70825;SDS011;58446;41.490;22.098;2022-08-19T00:28:05;13.43;;;5.97;;
70825;SDS011;58446;41.490;22.098;2022-08-19T00:30:31;9.52;;;6.03;;
70825;SDS011;58446;41.490;22.098;2022-08-19T00:32:57;10.03;;;6.40;;
70825;SDS011;58446;41.490;22.098;2022-08-19T00:35:23;11.95;;;6.20;;
70825;SDS011;58446;41.490;22.098;2022-08-19T00:37:50;12.07;;;6.60;;
70825;SDS011;58446;41.490;22.098;2022-08-19T00:40:16;9.83;;;5.97;;
70825;SDS011;58446;41.490;22.098;2022-08-19T00:42:43;10.13;;;6.05;;
70825;SDS011;58446;41.490;22.098;2022-08-19T00:45:20;9.48;;;6.47;;
70825;SDS011;58446;41.490;22.098;2022-08-19T00:47:47;11.38;;;6.35;;
70825;SDS011;58446;41.490;22.098;2022-08-19T00:50:14;11.70;;;7.43;;
70825;SDS011;58446;41.490;22.098;2022-08-19T00:52:43;9.95;;;6.72;;
70825;SDS011;58446;41.490;22.098;2022-08-19T00:55:17;10.68;;;6.97;;
70825;SDS011;58446;41.490;22.098;2022-08-19T00:57:47;11.63;;;6.93;;
70825;SDS011;58446;41.490;22.098;2022-08-19T01:00:17;14.10;;;7.43;;
70825;SDS011;58446;41.490;22.098;2022-08-19T01:02:44;14.63;;;6.57;;
70825;SDS011;58446;41.490;22.098;2022-08-19T01:05:12;10.50;;;6.75;;
70825;SDS011;58446;41.490;22.098;2022-08-19T01:07:41;9.73;;;6.22;;
70825;SDS011;58446;41.490;22.098;2022-08-19T01:10:09;10.60;;;5.63;;
70825;SDS011;58446;41.490;22.098;2022-08-19T01:12:39;9.95;;;6.63;;
70825;SDS011;58446;41.490;22.098;2022-08-19T01:15:07;9.90;;;6.43;;
70825;SDS011;58446;41.490;22.098;2022-08-19T01:17:35;11.80;;;7.28;;
70825;SDS011;58446;41.490;22.098;2022-08-19T01:20:04;11.38;;;7.22;;
70825;SDS011;58446;41.490;22.098;2022-08-19T01:22:40;10.60;;;6.82;;
70825;SDS011;58446;41.490;22.098;2022-08-19T01:25:10;11.18;;;6.43;;
70825;SDS011;58446;41.490;22.098;2022-08-19T01:27:41;11.57;;;6.83;;
70825;SDS011;58446;41.490;22.098;2022-08-19T01:30:10;12.27;;;6.30;;
70825;SDS011;58446;41.490;22.098;2022-08-19T01:32:39;9.65;;;6.13;;
70825;SDS011;58446;41.490;22.098;2022-08-19T01:35:05;11.77;;;6.05;;
70825;SDS011;58446;41.490;22.098;2022-08-19T01:37:41;8.90;;;5.90;;
70825;SDS011;58446;41.490;22.098;2022-08-19T01:40:09;11.10;;;6.27;;
70825;SDS011;58446;41.490;22.098;2022-08-19T01:42:35;10.85;;;6.35;;
70825;SDS011;58446;41.490;22.098;2022-08-19T01:45:00;9.45;;;5.97;;
70825;SDS011;58446;41.490;22.098;2022-08-19T01:47:26;9.30;;;6.10;;
70825;SDS011;58446;41.490;22.098;2022-08-19T01:49:52;11.15;;;6.03;;
70825;SDS011;58446;41.490;22.098;2022-08-19T01:52:18;9.47;;;5.83;;
70825;SDS011;58446;41.490;22.098;2022-08-19T01:54:43;11.10;;;6.20;;
70825;SDS011;58446;41.490;22.098;2022-08-19T01:57:10;10.50;;;6.60;;
70825;SDS011;58446;41.490;22.098;2022-08-19T01:59:39;11.68;;;6.65;;
70825;SDS011;58446;41.490;22.098;2022-08-19T02:02:06;14.32;;;6.53;;
70825;SDS011;58446;41.490;22.098;2022-08-19T02:04:34;10.90;;;6.32;;
70825;SDS011;58446;41.490;22.098;2022-08-19T02:07:00;9.25;;;6.32;;
70825;SDS011;58446;41.490;22.098;2022-08-19T02:09:26;9.17;;;6.53;;
70825;SDS011;58446;41.490;22.098;2022-08-19T02:11:51;10.02;;;6.15;;
70825;SDS011;58446;41.490;22.098;2022-08-19T02:14:18;10.35;;;6.55;;
70825;SDS011;58446;41.490;22.098;2022-08-19T02:16:44;9.80;;;6.30;;
70825;SDS011;58446;41.490;22.098;2022-08-19T02:19:09;10.07;;;6.25;;
70825;SDS011;58446;41.490;22.098;2022-08-19T02:21:35;9.90;;;6.63;;
70825;SDS011;58446;41.490;22.098;2022-08-19T02:24:02;8.85;;;5.68;;
70825;SDS011;58446;41.490;22.098;2022-08-19T02:26:28;8.93;;;5.95;;
70825;SDS011;58446;41.490;22.098;2022-08-19T02:28:54;9.83;;;5.90;;
70825;SDS011;58446;41.490;22.098;2022-08-19T02:31:22;9.80;;;6.32;;
70825;SDS011;58446;41.490;22.098;2022-08-19T02:33:49;9.32;;;6.05;;
70825;SDS011;58446;41.490;22.098;2022-08-19T02:36:15;11.73;;;5.97;;
70825;SDS011;58446;41.490;22.098;2022-08-19T02:38:42;8.57;;;5.90;;
70825;SDS011;58446;41.490;22.098;2022-08-19T02:41:13;8.77;;;5.60;;
70825;SDS011;58446;41.490;22.098;2022-08-19T02:43:41;9.35;;;5.70;;
70825;SDS011;58446;41.490;22.098;2022-08-19T02:46:22;10.95;;;6.75;;
70825;SDS011;58446;41.490;22.098;2022-08-19T02:48:52;12.13;;;6.28;;
70825;SDS011;58446;41.490;22.098;2022-08-19T02:51:20;10.77;;;5.50;;
70825;SDS011;58446;41.490;22.098;2022-08-19T02:53:47;10.85;;;5.32;;
70825;SDS011;58446;41.490;22.098;2022-08-19T02:56:13;11.60;;;5.65;;
70825;SDS011;58446;41.490;22.098;2022-08-19T02:58:39;11.97;;;6.07;;
70825;SDS011;58446;41.490;22.098;2022-08-19T03:01:05;10.32;;;5.80;;
70825;SDS011;58446;41.490;22.098;2022-08-19T03:03:32;11.55;;;7.50;;
70825;SDS011;58446;41.490;22.098;2022-08-19T03:06:07;10.43;;;6.32;;
70825;SDS011;58446;41.490;22.098;2022-08-19T03:08:36;10.00;;;6.35;;
70825;SDS011;58446;41.490;22.098;2022-08-19T03:11:02;11.77;;;6.23;;
70825;SDS011;58446;41.490;22.098;2022-08-19T03:13:29;11.63;;;6.25;;
70825;SDS011;58446;41.490;22.098;2022-08-19T03:15:54;13.70;;;6.68;;
70825;SDS011;58446;41.490;22.098;2022-08-19T03:18:20;12.10;;;6.40;;
70825;SDS011;58446;41.490;22.098;2022-08-19T03:20:47;13.05;;;6.45;;
70825;SDS011;58446;41.490;22.098;2022-08-19T03:23:14;11.82;;;6.85;;
70825;SDS011;58446;41.490;22.098;2022-08-19T03:25:42;9.60;;;5.80;;
70825;SDS011;58446;41.490;22.098;2022-08-19T03:28:13;11.67;;;6.63;;
70825;SDS011;58446;41.490;22.098;2022-08-19T03:30:39;11.55;;;6.72;;
70825;SDS011;58446;41.490;22.098;2022-08-19T03:33:06;11.60;;;6.90;;
70825;SDS011;58446;41.490;22.098;2022-08-19T03:35:33;12.75;;;6.85;;
70825;SDS011;58446;41.490;22.098;2022-08-19T03:38:02;11.23;;;7.53;;
70825;SDS011;58446;41.490;22.098;2022-08-19T03:40:29;15.13;;;8.37;;
70825;SDS011;58446;41.490;22.098;2022-08-19T03:42:55;10.98;;;7.05;;
70825;SDS011;58446;41.490;22.098;2022-08-19T03:45:22;13.00;;;7.65;;
70825;SDS011;58446;41.490;22.098;2022-08-19T03:47:48;13.50;;;7.22;;
70825;SDS011;58446;41.490;22.098;2022-08-19T03:50:13;13.80;;;7.27;;
70825;SDS011;58446;41.490;22.098;2022-08-19T03:52:39;11.35;;;7.22;;
70825;SDS011;58446;41.490;22.098;2022-08-19T03:55:05;15.63;;;7.22;;
70825;SDS011;58446;41.490;22.098;2022-08-19T03:57:32;11.43;;;7.27;;
70825;SDS011;58446;41.490;22.098;2022-08-19T03:59:59;14.25;;;7.45;;
70825;SDS011;58446;41.490;22.098;2022-08-19T04:02:25;14.00;;;7.53;;
70825;SDS011;58446;41.490;22.098;2022-08-19T04:04:52;13.67;;;7.73;;
70825;SDS011;58446;41.490;22.098;2022-08-19T04:07:20;12.57;;;6.28;;
70825;SDS011;58446;41.490;22.098;2022-08-19T04:09:46;11.75;;;7.35;;
70825;SDS011;58446;41.490;22.098;2022-08-19T04:12:14;11.18;;;6.85;;
70825;SDS011;58446;41.490;22.098;2022-08-19T04:14:39;10.02;;;6.43;;
70825;SDS011;58446;41.490;22.098;2022-08-19T04:17:06;11.67;;;7.17;;
70825;SDS011;58446;41.490;22.098;2022-08-19T04:19:33;12.20;;;6.75;;
70825;SDS011;58446;41.490;22.098;2022-08-19T04:22:00;11.88;;;6.90;;
70825;SDS011;58446;41.490;22.098;2022-08-19T04:24:25;10.85;;;6.22;;
70825;SDS011;58446;41.490;22.098;2022-08-19T04:26:51;13.27;;;6.87;;
70825;SDS011;58446;41.490;22.098;2022-08-19T04:29:18;13.02;;;6.50;;
70825;SDS011;58446;41.490;22.098;2022-08-19T04:31:50;14.90;;;7.00;;
70825;SDS011;58446;41.490;22.098;2022-08-19T04:34:18;15.80;;;6.97;;
70825;SDS011;58446;41.490;22.098;2022-08-19T04:36:48;13.07;;;6.28;;
70825;SDS011;58446;41.490;22.098;2022-08-19T04:39:17;13.48;;;6.50;;
70825;SDS011;58446;41.490;22.098;2022-08-19T04:41:45;13.40;;;6.93;;
70825;SDS011;58446;41.490;22.098;2022-08-19T04:44:30;11.10;;;6.80;;
70825;SDS011;58446;41.490;22.098;2022-08-19T04:46:57;12.00;;;6.67;;
70825;SDS011;58446;41.490;22.098;2022-08-19T04:49:23;12.27;;;6.65;;
70825;SDS011;58446;41.490;22.098;2022-08-19T04:51:51;13.18;;;7.68;;
70825;SDS011;58446;41.490;22.098;2022-08-19T04:54:18;12.55;;;7.65;;
70825;SDS011;58446;41.490;22.098;2022-08-19T04:56:47;11.77;;;6.82;;
70825;SDS011;58446;41.490;22.098;2022-08-19T04:59:18;11.73;;;6.17;;
70825;SDS011;58446;41.490;22.098;2022-08-19T05:01:45;12.85;;;6.97;;
70825;SDS011;58446;41.490;22.098;2022-08-19T05:04:14;14.15;;;6.80;;
70825;SDS011;58446;41.490;22.098;2022-08-19T05:06:42;13.77;;;7.38;;
70825;SDS011;58446;41.490;22.098;2022-08-19T05:09:08;15.87;;;7.67;;
70825;SDS011;58446;41.490;22.098;2022-08-19T05:11:35;17.93;;;7.50;;
70825;SDS011;58446;41.490;22.098;2022-08-19T05:14:05;16.65;;;7.03;;
70825;SDS011;58446;41.490;22.098;2022-08-19T05:16:31;13.93;;;7.28;;
70825;SDS011;58446;41.490;22.098;2022-08-19T05:18:57;14.32;;;7.13;;
70825;SDS011;58446;41.490;22.098;2022-08-19T05:21:42;16.33;;;7.00;;
70825;SDS011;58446;41.490;22.098;2022-08-19T05:24:26;14.77;;;7.57;;
70825;SDS011;58446;41.490;22.098;2022-08-19T05:26:53;13.10;;;7.32;;
70825;SDS011;58446;41.490;22.098;2022-08-19T05:29:22;13.13;;;7.00;;
70825;SDS011;58446;41.490;22.098;2022-08-19T05:31:50;17.92;;;6.85;;
70825;SDS011;58446;41.490;22.098;2022-08-19T05:34:17;15.63;;;6.40;;
70825;SDS011;58446;41.490;22.098;2022-08-19T05:36:50;13.40;;;6.45;;
70825;SDS011;58446;41.490;22.098;2022-08-19T05:39:22;9.77;;;6.30;;
70825;SDS011;58446;41.490;22.098;2022-08-19T05:41:54;11.40;;;6.97;;
70825;SDS011;58446;41.490;22.098;2022-08-19T05:44:22;11.32;;;5.90;;
70825;SDS011;58446;41.490;22.098;2022-08-19T05:46:55;9.73;;;6.23;;
70825;SDS011;58446;41.490;22.098;2022-08-19T05:49:21;15.13;;;6.20;;
70825;SDS011;58446;41.490;22.098;2022-08-19T05:51:48;10.43;;;5.85;;
70825;SDS011;58446;41.490;22.098;2022-08-19T05:54:13;9.27;;;5.07;;
70825;SDS011;58446;41.490;22.098;2022-08-19T05:56:40;10.85;;;5.68;;
70825;SDS011;58446;41.490;22.098;2022-08-19T05:59:07;10.05;;;6.22;;
70825;SDS011;58446;41.490;22.098;2022-08-19T06:01:37;10.33;;;5.93;;
70825;SDS011;58446;41.490;22.098;2022-08-19T06:04:04;8.70;;;4.97;;
70825;SDS011;58446;41.490;22.098;2022-08-19T06:06:30;11.20;;;5.60;;
70825;SDS011;58446;41.490;22.098;2022-08-19T06:08:55;9.38;;;4.95;;
70825;SDS011;58446;41.490;22.098;2022-08-19T06:11:31;9.53;;;4.87;;
70825;SDS011;58446;41.490;22.098;2022-08-19T06:14:12;8.88;;;5.47;;
70825;SDS011;58446;41.490;22.098;2022-08-19T06:16:43;10.65;;;5.47;;
70825;SDS011;58446;41.490;22.098;2022-08-19T06:19:10;14.10;;;7.05;;
70825;SDS011;58446;41.490;22.098;2022-08-19T06:21:39;10.50;;;5.93;;
70825;SDS011;58446;41.490;22.098;2022-08-19T06:24:07;14.52;;;5.50;;
70825;SDS011;58446;41.490;22.098;2022-08-19T06:26:36;10.27;;;6.03;;
70825;SDS011;58446;41.490;22.098;2022-08-19T06:29:07;12.05;;;5.60;;
70825;SDS011;58446;41.490;22.098;2022-08-19T06:31:34;11.05;;;5.95;;
70825;SDS011;58446;41.490;22.098;2022-08-19T06:34:02;9.67;;;4.90;;
70825;SDS011;58446;41.490;22.098;2022-08-19T06:36:31;8.70;;;5.18;;
70825;SDS011;58446;41.490;22.098;2022-08-19T06:39:00;13.82;;;6.10;;
70825;SDS011;58446;41.490;22.098;2022-08-19T06:41:34;10.00;;;6.18;;
70825;SDS011;58446;41.490;22.098;2022-08-19T06:44:01;13.88;;;6.45;;
70825;SDS011;58446;41.490;22.098;2022-08-19T06:46:27;10.90;;;5.43;;
70825;SDS011;58446;41.490;22.098;2022-08-19T06:48:53;10.68;;;6.07;;
70825;SDS011;58446;41.490;22.098;2022-08-19T06:51:20;10.98;;;5.93;;
70825;SDS011;58446;41.490;22.098;2022-08-19T06:53:47;11.13;;;5.32;;
70825;SDS011;58446;41.490;22.098;2022-08-19T06:56:15;13.15;;;5.93;;
70825;SDS011;58446;41.490;22.098;2022-08-19T06:58:43;14.30;;;6.33;;
70825;SDS011;58446;41.490;22.098;2022-08-19T07:01:09;12.38;;;6.13;;
70825;SDS011;58446;41.490;22.098;2022-08-19T07:03:36;11.07;;;6.40;;
70825;SDS011;58446;41.490;22.098;2022-08-19T07:06:05;12.85;;;6.55;;
70825;SDS011;58446;41.490;22.098;2022-08-19T07:08:37;12.95;;;6.03;;
70825;SDS011;58446;41.490;22.098;2022-08-19T07:11:08;11.60;;;5.50;;
70825;SDS011;58446;41.490;22.098;2022-08-19T07:13:36;14.23;;;6.05;;
70825;SDS011;58446;41.490;22.098;2022-08-19T07:16:06;11.13;;;5.75;;
70825;SDS011;58446;41.490;22.098;2022-08-19T07:18:35;10.57;;;5.72;;
70825;SDS011;58446;41.490;22.098;2022-08-19T07:21:06;12.20;;;6.63;;
70825;SDS011;58446;41.490;22.098;2022-08-19T07:23:35;9.80;;;5.57;;
70825;SDS011;58446;41.490;22.098;2022-08-19T07:26:07;10.75;;;6.40;;
70825;SDS011;58446;41.490;22.098;2022-08-19T07:28:35;10.68;;;6.22;;
70825;SDS011;58446;41.490;22.098;2022-08-19T07:31:05;11.13;;;6.20;;
70825;SDS011;58446;41.490;22.098;2022-08-19T07:33:34;11.60;;;5.95;;
70825;SDS011;58446;41.490;22.098;2022-08-19T07:36:04;9.13;;;5.60;;
70825;SDS011;58446;41.490;22.098;2022-08-19T07:38:32;9.80;;;5.38;;
70825;SDS011;58446;41.490;22.098;2022-08-19T07:40:59;10.15;;;5.07;;
70825;SDS011;58446;41.490;22.098;2022-08-19T07:43:25;10.57;;;5.70;;
70825;SDS011;58446;41.490;22.098;2022-08-19T07:45:52;13.73;;;6.65;;
70825;SDS011;58446;41.490;22.098;2022-08-19T07:48:25;11.53;;;6.20;;
70825;SDS011;58446;41.490;22.098;2022-08-19T07:50:56;12.55;;;6.45;;
70825;SDS011;58446;41.490;22.098;2022-08-19T07:53:24;12.38;;;6.25;;
70825;SDS011;58446;41.490;22.098;2022-08-19T07:55:51;15.13;;;6.20;;
70825;SDS011;58446;41.490;22.098;2022-08-19T07:58:19;15.85;;;5.78;;
70825;SDS011;58446;41.490;22.098;2022-08-19T08:00:49;16.50;;;6.70;;
70825;SDS011;58446;41.490;22.098;2022-08-19T08:03:19;18.05;;;10.63;;
70825;SDS011;58446;41.490;22.098;2022-08-19T08:06:09;12.70;;;6.57;;
70825;SDS011;58446;41.490;22.098;2022-08-19T08:08:54;10.35;;;6.22;;
70825;SDS011;58446;41.490;22.098;2022-08-19T08:11:39;12.13;;;5.93;;
70825;SDS011;58446;41.490;22.098;2022-08-19T08:14:20;11.50;;;6.20;;
70825;SDS011;58446;41.490;22.098;2022-08-19T08:16:51;9.75;;;5.45;;
70825;SDS011;58446;41.490;22.098;2022-08-19T08:19:18;10.52;;;6.28;;
70825;SDS011;58446;41.490;22.098;2022-08-19T08:21:47;12.60;;;6.15;;
70825;SDS011;58446;41.490;22.098;2022-08-19T08:24:13;9.98;;;5.72;;
70825;SDS011;58446;41.490;22.098;2022-08-19T08:26:39;12.97;;;5.53;;
70825;SDS011;58446;41.490;22.098;2022-08-19T08:29:06;11.68;;;6.60;;
70825;SDS011;58446;41.490;22.098;2022-08-19T08:31:34;11.20;;;5.72;;
70825;SDS011;58446;41.490;22.098;2022-08-19T08:33:59;11.40;;;6.37;;
70825;SDS011;58446;41.490;22.098;2022-08-19T08:36:25;12.30;;;6.63;;
70825;SDS011;58446;41.490;22.098;2022-08-19T08:38:52;11.05;;;5.38;;
70825;SDS011;58446;41.490;22.098;2022-08-19T08:44:23;10.68;;;6.20;;
70825;SDS011;58446;41.490;22.098;2022-08-19T08:47:12;13.93;;;5.88;;
70825;SDS011;58446;41.490;22.098;2022-08-19T08:49:50;12.55;;;5.85;;
70825;SDS011;58446;41.490;22.098;2022-08-19T08:52:30;11.38;;;5.95;;
70825;SDS011;58446;41.490;22.098;2022-08-19T08:55:05;11.67;;;4.87;;
70825;SDS011;58446;41.490;22.098;2022-08-19T08:57:36;10.27;;;5.35;;
70825;SDS011;58446;41.490;22.098;2022-08-19T09:00:30;10.75;;;5.60;;
70825;SDS011;58446;41.490;22.098;2022-08-19T09:03:02;25.77;;;13.13;;
70825;SDS011;58446;41.490;22.098;2022-08-19T09:05:54;12.35;;;5.80;;
70825;SDS011;58446;41.490;22.098;2022-08-19T09:11:12;10.18;;;5.53;;
70825;SDS011;58446;41.490;22.098;2022-08-19T09:14:01;11.60;;;5.20;;
70825;SDS011;58446;41.490;22.098;2022-08-19T09:16:46;10.93;;;5.10;;
70825;SDS011;58446;41.490;22.098;2022-08-19T09:19:13;10.77;;;5.30;;
70825;SDS011;58446;41.490;22.098;2022-08-19T09:21:39;12.63;;;5.43;;
70825;SDS011;58446;41.490;22.098;2022-08-19T09:24:04;11.53;;;5.67;;
70825;SDS011;58446;41.490;22.098;2022-08-19T09:26:31;12.67;;;5.63;;
70825;SDS011;58446;41.490;22.098;2022-08-19T09:28:58;11.00;;;5.35;;
70825;SDS011;58446;41.490;22.098;2022-08-19T09:31:25;10.38;;;5.03;;
70825;SDS011;58446;41.490;22.098;2022-08-19T09:33:54;12.68;;;5.28;;
70825;SDS011;58446;41.490;22.098;2022-08-19T09:36:22;12.48;;;5.65;;
70825;SDS011;58446;41.490;22.098;2022-08-19T09:38:50;12.70;;;5.10;;
70825;SDS011;58446;41.490;22.098;2022-08-19T09:41:20;18.02;;;5.93;;
70825;SDS011;58446;41.490;22.098;2022-08-19T09:43:48;13.57;;;6.25;;
70825;SDS011;58446;41.490;22.098;2022-08-19T09:46:20;13.55;;;5.95;;
70825;SDS011;58446;41.490;22.098;2022-08-19T09:48:48;15.02;;;5.70;;
70825;SDS011;58446;41.490;22.098;2022-08-19T09:51:20;8.83;;;5.03;;
70825;SDS011;58446;41.490;22.098;2022-08-19T09:53:48;10.63;;;5.43;;
70825;SDS011;58446;41.490;22.098;2022-08-19T09:56:15;10.00;;;5.07;;
70825;SDS011;58446;41.490;22.098;2022-08-19T09:58:43;10.23;;;6.07;;
70825;SDS011;58446;41.490;22.098;2022-08-19T10:01:11;18.15;;;5.35;;
70825;SDS011;58446;41.490;22.098;2022-08-19T10:03:41;9.87;;;4.77;;
70825;SDS011;58446;41.490;22.098;2022-08-19T10:06:07;8.75;;;4.70;;
70825;SDS011;58446;41.490;22.098;2022-08-19T10:08:35;16.58;;;6.88;;
70825;SDS011;58446;41.490;22.098;2022-08-19T10:11:02;23.93;;;7.70;;
70825;SDS011;58446;41.490;22.098;2022-08-19T10:13:29;15.77;;;6.75;;
70825;SDS011;58446;41.490;22.098;2022-08-19T10:16:02;13.68;;;5.50;;
70825;SDS011;58446;41.490;22.098;2022-08-19T10:18:31;9.48;;;4.93;;
70825;SDS011;58446;41.490;22.098;2022-08-19T10:21:13;8.68;;;4.95;;
70825;SDS011;58446;41.490;22.098;2022-08-19T10:23:46;10.07;;;4.90;;
70825;SDS011;58446;41.490;22.098;2022-08-19T10:26:14;11.77;;;5.70;;
70825;SDS011;58446;41.490;22.098;2022-08-19T10:28:43;12.82;;;5.35;;
70825;SDS011;58446;41.490;22.098;2022-08-19T10:31:10;10.57;;;4.80;;
70825;SDS011;58446;41.490;22.098;2022-08-19T10:33:38;9.02;;;4.63;;
70825;SDS011;58446;41.490;22.098;2022-08-19T10:36:11;9.43;;;4.70;;
70825;SDS011;58446;41.490;22.098;2022-08-19T10:38:40;9.60;;;4.68;;
70825;SDS011;58446;41.490;22.098;2022-08-19T10:41:10;9.02;;;4.63;;
70825;SDS011;58446;41.490;22.098;2022-08-19T10:43:41;8.23;;;4.53;;
70825;SDS011;58446;41.490;22.098;2022-08-19T10:46:08;10.18;;;5.22;;
70825;SDS011;58446;41.490;22.098;2022-08-19T10:48:36;10.15;;;5.07;;
70825;SDS011;58446;41.490;22.098;2022-08-19T10:51:02;6.63;;;3.88;;
70825;SDS011;58446;41.490;22.098;2022-08-19T10:53:47;8.65;;;4.40;;
70825;SDS011;58446;41.490;22.098;2022-08-19T10:56:12;9.17;;;4.77;;
70825;SDS011;58446;41.490;22.098;2022-08-19T10:58:57;7.72;;;4.32;;
70825;SDS011;58446;41.490;22.098;2022-08-19T11:01:24;11.07;;;4.22;;
70825;SDS011;58446;41.490;22.098;2022-08-19T11:03:50;10.87;;;3.90;;
70825;SDS011;58446;41.490;22.098;2022-08-19T11:06:16;9.57;;;4.13;;
70825;SDS011;58446;41.490;22.098;2022-08-19T11:08:41;8.50;;;4.25;;
70825;SDS011;58446;41.490;22.098;2022-08-19T11:11:11;8.37;;;4.33;;
70825;SDS011;58446;41.490;22.098;2022-08-19T11:13:38;9.30;;;3.90;;
70825;SDS011;58446;41.490;22.098;2022-08-19T11:16:08;10.00;;;4.72;;
70825;SDS011;58446;41.490;22.098;2022-08-19T11:18:41;11.27;;;4.43;;
70825;SDS011;58446;41.490;22.098;2022-08-19T11:21:15;7.10;;;4.07;;
70825;SDS011;58446;41.490;22.098;2022-08-19T11:23:52;8.23;;;3.90;;
70825;SDS011;58446;41.490;22.098;2022-08-19T11:26:20;8.52;;;4.30;;
70825;SDS011;58446;41.490;22.098;2022-08-19T11:28:48;9.57;;;3.60;;
70825;SDS011;58446;41.490;22.098;2022-08-19T11:31:18;10.50;;;4.10;;
70825;SDS011;58446;41.490;22.098;2022-08-19T11:33:46;7.82;;;4.05;;
70825;SDS011;58446;41.490;22.098;2022-08-19T11:36:12;9.47;;;4.37;;
70825;SDS011;58446;41.490;22.098;2022-08-19T11:38:38;7.05;;;3.67;;
70825;SDS011;58446;41.490;22.098;2022-08-19T11:41:05;9.00;;;4.15;;
70825;SDS011;58446;41.490;22.098;2022-08-19T11:43:32;7.95;;;4.70;;
70825;SDS011;58446;41.490;22.098;2022-08-19T11:45:59;8.27;;;3.70;;
70825;SDS011;58446;41.490;22.098;2022-08-19T11:48:28;11.70;;;3.60;;
70825;SDS011;58446;41.490;22.098;2022-08-19T11:50:54;10.07;;;4.28;;
70825;SDS011;58446;41.490;22.098;2022-08-19T11:53:23;11.52;;;4.55;;
70825;SDS011;58446;41.490;22.098;2022-08-19T11:55:49;9.83;;;4.10;;
70825;SDS011;58446;41.490;22.098;2022-08-19T11:58:16;10.00;;;3.60;;
70825;SDS011;58446;41.490;22.098;2022-08-19T12:00:43;10.43;;;3.50;;
70825;SDS011;58446;41.490;22.098;2022-08-19T12:03:10;13.18;;;3.78;;
70825;SDS011;58446;41.490;22.098;2022-08-19T12:05:37;11.88;;;3.67;;
70825;SDS011;58446;41.490;22.098;2022-08-19T12:08:04;12.83;;;3.57;;
70825;SDS011;58446;41.490;22.098;2022-08-19T12:10:29;10.73;;;3.50;;
70825;SDS011;58446;41.490;22.098;2022-08-19T12:12:55;10.00;;;4.30;;
70825;SDS011;58446;41.490;22.098;2022-08-19T12:15:21;9.57;;;3.67;;
70825;SDS011;58446;41.490;22.098;2022-08-19T12:17:47;10.05;;;3.95;;
70825;SDS011;58446;41.490;22.098;2022-08-19T12:20:12;12.13;;;3.50;;
70825;SDS011;58446;41.490;22.098;2022-08-19T12:22:40;9.43;;;3.90;;
70825;SDS011;58446;41.490;22.098;2022-08-19T12:25:08;11.20;;;4.17;;
70825;SDS011;58446;41.490;22.098;2022-08-19T12:27:35;10.07;;;3.45;;
70825;SDS011;58446;41.490;22.098;2022-08-19T12:30:02;10.07;;;4.20;;
70825;SDS011;58446;41.490;22.098;2022-08-19T12:32:28;10.40;;;4.07;;
70825;SDS011;58446;41.490;22.098;2022-08-19T12:34:54;9.23;;;3.97;;
70825;SDS011;58446;41.490;22.098;2022-08-19T12:37:20;9.02;;;3.72;;
70825;SDS011;58446;41.490;22.098;2022-08-19T12:39:46;10.27;;;4.18;;
70825;SDS011;58446;41.490;22.098;2022-08-19T12:42:12;10.50;;;4.37;;
70825;SDS011;58446;41.490;22.098;2022-08-19T12:44:39;10.60;;;3.83;;
70825;SDS011;58446;41.490;22.098;2022-08-19T12:47:07;8.98;;;4.22;;
70825;SDS011;58446;41.490;22.098;2022-08-19T12:49:35;12.70;;;4.30;;
70825;SDS011;58446;41.490;22.098;2022-08-19T12:52:04;8.30;;;3.47;;
70825;SDS011;58446;41.490;22.098;2022-08-19T12:54:32;10.55;;;3.80;;
70825;SDS011;58446;41.490;22.098;2022-08-19T12:56:58;9.60;;;3.22;;
70825;SDS011;58446;41.490;22.098;2022-08-19T12:59:25;9.30;;;3.88;;
70825;SDS011;58446;41.490;22.098;2022-08-19T13:01:51;7.33;;;3.93;;
70825;SDS011;58446;41.490;22.098;2022-08-19T13:04:17;10.40;;;3.58;;
70825;SDS011;58446;41.490;22.098;2022-08-19T13:06:43;6.95;;;3.30;;
70825;SDS011;58446;41.490;22.098;2022-08-19T13:09:09;8.57;;;3.80;;
70825;SDS011;58446;41.490;22.098;2022-08-19T13:11:36;12.15;;;4.18;;
70825;SDS011;58446;41.490;22.098;2022-08-19T13:14:03;11.30;;;3.40;;
70825;SDS011;58446;41.490;22.098;2022-08-19T13:16:29;10.75;;;3.50;;
70825;SDS011;58446;41.490;22.098;2022-08-19T13:18:55;11.13;;;3.63;;
70825;SDS011;58446;41.490;22.098;2022-08-19T13:21:23;11.27;;;3.63;;
70825;SDS011;58446;41.490;22.098;2022-08-19T13:23:52;9.30;;;3.20;;
70825;SDS011;58446;41.490;22.098;2022-08-19T13:26:19;13.65;;;3.83;;
70825;SDS011;58446;41.490;22.098;2022-08-19T13:28:45;12.10;;;3.70;;
70825;SDS011;58446;41.490;22.098;2022-08-19T13:31:43;11.85;;;4.38;;
70825;SDS011;58446;41.490;22.098;2022-08-19T13:34:31;9.83;;;3.60;;
70825;SDS011;58446;41.490;22.098;2022-08-19T13:37:00;10.65;;;3.92;;
70825;SDS011;58446;41.490;22.098;2022-08-19T13:39:28;11.82;;;3.97;;
70825;SDS011;58446;41.490;22.098;2022-08-19T13:41:54;12.23;;;4.70;;
70825;SDS011;58446;41.490;22.098;2022-08-19T13:44:20;9.97;;;4.40;;
70825;SDS011;58446;41.490;22.098;2022-08-19T13:46:46;9.02;;;4.38;;
70825;SDS011;58446;41.490;22.098;2022-08-19T13:49:14;11.43;;;3.85;;
70825;SDS011;58446;41.490;22.098;2022-08-19T13:51:40;7.82;;;3.83;;
70825;SDS011;58446;41.490;22.098;2022-08-19T13:54:08;10.33;;;4.20;;
70825;SDS011;58446;41.490;22.098;2022-08-19T13:56:35;12.50;;;3.88;;
70825;SDS011;58446;41.490;22.098;2022-08-19T13:59:06;9.00;;;3.65;;
70825;SDS011;58446;41.490;22.098;2022-08-19T14:01:31;12.27;;;3.73;;
70825;SDS011;58446;41.490;22.098;2022-08-19T14:03:57;11.93;;;4.03;;
70825;SDS011;58446;41.490;22.098;2022-08-19T14:06:23;13.13;;;3.97;;
70825;SDS011;58446;41.490;22.098;2022-08-19T14:08:50;18.23;;;4.05;;
70825;SDS011;58446;41.490;22.098;2022-08-19T14:11:16;10.63;;;3.92;;
70825;SDS011;58446;41.490;22.098;2022-08-19T14:13:42;14.20;;;4.70;;
70825;SDS011;58446;41.490;22.098;2022-08-19T14:16:08;14.32;;;4.50;;
70825;SDS011;58446;41.490;22.098;2022-08-19T14:18:38;12.65;;;4.47;;
70825;SDS011;58446;41.490;22.098;2022-08-19T14:21:05;12.25;;;4.20;;
70825;SDS011;58446;41.490;22.098;2022-08-19T14:23:32;9.63;;;4.03;;
70825;SDS011;58446;41.490;22.098;2022-08-19T14:26:06;9.75;;;4.00;;
70825;SDS011;58446;41.490;22.098;2022-08-19T14:28:37;13.50;;;3.50;;
70825;SDS011;58446;41.490;22.098;2022-08-19T14:31:07;10.57;;;3.83;;
70825;SDS011;58446;41.490;22.098;2022-08-19T14:33:35;12.05;;;4.35;;
70825;SDS011;58446;41.490;22.098;2022-08-19T14:36:01;10.80;;;3.37;;
70825;SDS011;58446;41.490;22.098;2022-08-19T14:38:28;11.52;;;4.28;;